sensor_id;sensor_type;location;lat;lon;timestamp;temperature;humidity
27368;DHT22;14839;48.106;11.618;2022-12-29T05:01:51;5.70;82.30
27368;DHT22;14839;48.106;11.618;2022-12-29T05:04:16;5.70;82.00
27368;DHT22;14839;48.106;11.618;2022-12-29T05:06:42;5.70;81.80
27368;DHT22;14839;48.106;11.618;2022-12-29T05:09:08;5.70;82.00
27368;DHT22;14839;48.106;11.618;2022-12-29T05:11:34;5.70;82.70
27368;DHT22;14839;48.106;11.618;2022-12-29T05:13:59;5.70;82.60
27368;DHT22;14839;48.106;11.618;2022-12-29T05:16:25;5.70;81.80
27368;DHT22;14839;48.106;11.618;2022-12-29T05:18:51;5.80;81.70
27368;DHT22;14839;48.106;11.618;2022-12-29T05:21:16;5.80;81.70
27368;DHT22;14839;48.106;11.618;2022-12-29T05:23:42;5.80;82.10
27368;DHT22;14839;48.106;11.618;2022-12-29T05:26:07;5.70;81.70
27368;DHT22;14839;48.106;11.618;2022-12-29T05:28:33;5.70;82.00
27368;DHT22;14839;48.106;11.618;2022-12-29T05:30:58;5.70;82.00
27368;DHT22;14839;48.106;11.618;2022-12-29T05:33:24;5.70;82.60
27368;DHT22;14839;48.106;11.618;2022-12-29T05:35:50;5.70;83.00
27368;DHT22;14839;48.106;11.618;2022-12-29T05:38:15;5.60;83.00
27368;DHT22;14839;48.106;11.618;2022-12-29T05:40:41;5.60;83.20
27368;DHT22;14839;48.106;11.618;2022-12-29T05:43:08;5.70;83.20
27368;DHT22;14839;48.106;11.618;2022-12-29T05:45:33;5.70;82.90
27368;DHT22;14839;48.106;11.618;2022-12-29T05:47:59;5.70;82.90
27368;DHT22;14839;48.106;11.618;2022-12-29T05:50:24;5.70;82.60
27368;DHT22;14839;48.106;11.618;2022-12-29T05:52:50;5.70;82.40
27368;DHT22;14839;48.106;11.618;2022-12-29T05:55:16;5.60;82.70
27368;DHT22;14839;48.106;11.618;2022-12-29T05:57:42;5.60;84.10
27368;DHT22;14839;48.106;11.618;2022-12-29T06:00:08;5.70;83.90
27368;DHT22;14839;48.106;11.618;2022-12-29T06:02:34;5.60;84.70
27368;DHT22;14839;48.106;11.618;2022-12-29T06:04:59;5.50;85.60
27368;DHT22;14839;48.106;11.618;2022-12-29T06:07:25;5.50;85.00
27368;DHT22;14839;48.106;11.618;2022-12-29T06:09:50;5.60;85.40
27368;DHT22;14839;48.106;11.618;2022-12-29T06:12:16;5.50;85.90
27368;DHT22;14839;48.106;11.618;2022-12-29T06:14:42;5.50;86.00
27368;DHT22;14839;48.106;11.618;2022-12-29T06:17:08;5.60;86.00
27368;DHT22;14839;48.106;11.618;2022-12-29T06:19:33;5.40;86.90
27368;DHT22;14839;48.106;11.618;2022-12-29T06:21:59;5.30;87.70
27368;DHT22;14839;48.106;11.618;2022-12-29T06:24:24;5.30;88.90
27368;DHT22;14839;48.106;11.618;2022-12-29T06:26:50;5.40;88.30
27368;DHT22;14839;48.106;11.618;2022-12-29T06:29:15;5.30;88.30
27368;DHT22;14839;48.106;11.618;2022-12-29T06:31:45;5.30;88.40
27368;DHT22;14839;48.106;11.618;2022-12-29T06:34:11;5.30;87.10
27368;DHT22;14839;48.106;11.618;2022-12-29T06:36:37;5.30;86.90
27368;DHT22;14839;48.106;11.618;2022-12-29T06:39:03;5.30;86.30
27368;DHT22;14839;48.106;11.618;2022-12-29T06:41:29;5.40;86.30
27368;DHT22;14839;48.106;11.618;2022-12-29T06:43:54;5.40;86.50
27368;DHT22;14839;48.106;11.618;2022-12-29T06:46:20;5.40;86.20
27368;DHT22;14839;48.106;11.618;2022-12-29T06:48:46;5.40;86.20
27368;DHT22;14839;48.106;11.618;2022-12-29T06:51:11;5.40;86.80
27368;DHT22;14839;48.106;11.618;2022-12-29T06:53:37;5.40;86.90
27368;DHT22;14839;48.106;11.618;2022-12-29T06:56:03;5.50;86.60
27368;DHT22;14839;48.106;11.618;2022-12-29T06:58:28;5.50;86.00
27368;DHT22;14839;48.106;11.618;2022-12-29T07:00:54;5.50;85.40
27368;DHT22;14839;48.106;11.618;2022-12-29T07:03:20;5.50;85.30
27368;DHT22;14839;48.106;11.618;2022-12-29T07:05:45;5.50;85.60
27368;DHT22;14839;48.106;11.618;2022-12-29T07:08:11;5.60;84.50
27368;DHT22;14839;48.106;11.618;2022-12-29T07:10:36;5.70;84.10
27368;DHT22;14839;48.106;11.618;2022-12-29T07:13:02;5.70;84.70
27368;DHT22;14839;48.106;11.618;2022-12-29T07:15:28;5.70;84.10
27368;DHT22;14839;48.106;11.618;2022-12-29T07:17:53;5.70;83.80
27368;DHT22;14839;48.106;11.618;2022-12-29T07:20:19;5.70;83.20
27368;DHT22;14839;48.106;11.618;2022-12-29T07:22:44;5.70;83.30
27368;DHT22;14839;48.106;11.618;2022-12-29T07:25:10;5.80;83.20
27368;DHT22;14839;48.106;11.618;2022-12-29T07:27:36;5.80;83.00
27368;DHT22;14839;48.106;11.618;2022-12-29T07:30:01;5.80;83.00
27368;DHT22;14839;48.106;11.618;2022-12-29T07:32:27;5.80;82.60
27368;DHT22;14839;48.106;11.618;2022-12-29T07:34:52;5.90;82.40
27368;DHT22;14839;48.106;11.618;2022-12-29T07:37:18;6.00;82.30
27368;DHT22;14839;48.106;11.618;2022-12-29T07:39:44;6.00;81.50
27368;DHT22;14839;48.106;11.618;2022-12-29T07:42:09;6.10;81.50
27368;DHT22;14839;48.106;11.618;2022-12-29T07:44:35;6.30;80.90
27368;DHT22;14839;48.106;11.618;2022-12-29T07:47:02;6.30;80.60
27368;DHT22;14839;48.106;11.618;2022-12-29T07:49:27;6.30;80.20
27368;DHT22;14839;48.106;11.618;2022-12-29T07:51:53;6.40;79.40
27368;DHT22;14839;48.106;11.618;2022-12-29T07:54:19;6.40;79.30
27368;DHT22;14839;48.106;11.618;2022-12-29T07:56:45;6.40;79.00
27368;DHT22;14839;48.106;11.618;2022-12-29T07:59:10;6.50;78.40
27368;DHT22;14839;48.106;11.618;2022-12-29T08:01:38;6.60;78.20
27368;DHT22;14839;48.106;11.618;2022-12-29T08:04:04;6.70;77.90
27368;DHT22;14839;48.106;11.618;2022-12-29T08:06:29;6.70;77.80
27368;DHT22;14839;48.106;11.618;2022-12-29T08:08:56;6.80;77.90
27368;DHT22;14839;48.106;11.618;2022-12-29T08:11:22;6.90;76.60
27368;DHT22;14839;48.106;11.618;2022-12-29T08:13:47;7.10;76.70
27368;DHT22;14839;48.106;11.618;2022-12-29T08:16:13;7.40;75.20
27368;DHT22;14839;48.106;11.618;2022-12-29T08:18:39;7.80;73.90
27368;DHT22;14839;48.106;11.618;2022-12-29T08:21:05;8.30;72.40
27368;DHT22;14839;48.106;11.618;2022-12-29T08:23:31;8.60;70.90
27368;DHT22;14839;48.106;11.618;2022-12-29T08:26:02;8.90;70.10
27368;DHT22;14839;48.106;11.618;2022-12-29T08:28:28;9.10;68.60
27368;DHT22;14839;48.106;11.618;2022-12-29T08:30:57;9.30;67.90
27368;DHT22;14839;48.106;11.618;2022-12-29T08:33:23;9.40;67.90
27368;DHT22;14839;48.106;11.618;2022-12-29T08:35:49;9.50;67.70
27368;DHT22;14839;48.106;11.618;2022-12-29T08:38:15;9.50;67.60
27368;DHT22;14839;48.106;11.618;2022-12-29T08:40:41;9.50;67.60
27368;DHT22;14839;48.106;11.618;2022-12-29T08:43:06;9.50;68.60
27368;DHT22;14839;48.106;11.618;2022-12-29T08:45:32;9.90;67.00
27368;DHT22;14839;48.106;11.618;2022-12-29T08:47:58;10.10;66.40
27368;DHT22;14839;48.106;11.618;2022-12-29T08:50:23;10.60;65.30
27368;DHT22;14839;48.106;11.618;2022-12-29T08:52:49;10.90;65.20
27368;DHT22;14839;48.106;11.618;2022-12-29T08:55:15;11.30;63.40
27368;DHT22;14839;48.106;11.618;2022-12-29T08:57:40;11.30;63.50
27368;DHT22;14839;48.106;11.618;2022-12-29T09:00:06;11.20;64.90
27368;DHT22;14839;48.106;11.618;2022-12-29T09:02:32;11.10;65.80
27368;DHT22;14839;48.106;11.618;2022-12-29T09:04:58;11.50;63.50
27368;DHT22;14839;48.106;11.618;2022-12-29T09:07:24;11.50;64.60
27368;DHT22;14839;48.106;11.618;2022-12-29T09:09:50;11.50;64.00
27368;DHT22;14839;48.106;11.618;2022-12-29T09:12:19;11.60;63.20
27368;DHT22;14839;48.106;11.618;2022-12-29T09:14:46;11.70;62.50
27368;DHT22;14839;48.106;11.618;2022-12-29T09:17:12;11.80;61.70
27368;DHT22;14839;48.106;11.618;2022-12-29T09:19:56;11.90;61.00
27368;DHT22;14839;48.106;11.618;2022-12-29T09:22:22;11.80;61.10
27368;DHT22;14839;48.106;11.618;2022-12-29T09:28:10;11.50;61.10
27368;DHT22;14839;48.106;11.618;2022-12-29T09:30:35;11.40;61.90
27368;DHT22;14839;48.106;11.618;2022-12-29T09:33:01;11.50;61.60
27368;DHT22;14839;48.106;11.618;2022-12-29T09:35:26;11.50;60.70
27368;DHT22;14839;48.106;11.618;2022-12-29T09:37:52;11.40;60.40
27368;DHT22;14839;48.106;11.618;2022-12-29T09:40:32;11.40;61.40
27368;DHT22;14839;48.106;11.618;2022-12-29T09:43:12;11.20;63.10
27368;DHT22;14839;48.106;11.618;2022-12-29T09:46:02;11.50;60.50
27368;DHT22;14839;48.106;11.618;2022-12-29T09:48:37;12.00;60.20
27368;DHT22;14839;48.106;11.618;2022-12-29T09:51:09;12.60;58.40
27368;DHT22;14839;48.106;11.618;2022-12-29T09:53:42;12.50;56.70
27368;DHT22;14839;48.106;11.618;2022-12-29T09:56:21;12.50;56.90
27368;DHT22;14839;48.106;11.618;2022-12-29T09:59:08;12.30;56.00
27368;DHT22;14839;48.106;11.618;2022-12-29T10:01:42;12.10;57.90
27368;DHT22;14839;48.106;11.618;2022-12-29T10:04:09;11.90;58.20
27368;DHT22;14839;48.106;11.618;2022-12-29T10:06:51;11.90;58.90
27368;DHT22;14839;48.106;11.618;2022-12-29T10:09:33;11.60;58.80
27368;DHT22;14839;48.106;11.618;2022-12-29T10:15:03;11.50;59.50
27368;DHT22;14839;48.106;11.618;2022-12-29T10:17:58;11.60;58.70
27368;DHT22;14839;48.106;11.618;2022-12-29T10:20:37;11.50;59.20
27368;DHT22;14839;48.106;11.618;2022-12-29T10:23:26;11.40;58.90
27368;DHT22;14839;48.106;11.618;2022-12-29T10:25:57;11.10;61.00
27368;DHT22;14839;48.106;11.618;2022-12-29T10:28:38;11.10;59.20
27368;DHT22;14839;48.106;11.618;2022-12-29T10:31:14;11.10;59.50
27368;DHT22;14839;48.106;11.618;2022-12-29T10:33:42;11.20;59.80
27368;DHT22;14839;48.106;11.618;2022-12-29T10:36:18;11.30;60.00
27368;DHT22;14839;48.106;11.618;2022-12-29T10:38:50;11.40;59.20
27368;DHT22;14839;48.106;11.618;2022-12-29T10:44:20;11.30;59.80
27368;DHT22;14839;48.106;11.618;2022-12-29T10:46:55;11.30;59.20
27368;DHT22;14839;48.106;11.618;2022-12-29T10:49:21;11.20;58.40
27368;DHT22;14839;48.106;11.618;2022-12-29T10:51:50;11.10;59.40
27368;DHT22;14839;48.106;11.618;2022-12-29T10:54:50;11.40;59.10
27368;DHT22;14839;48.106;11.618;2022-12-29T10:57:41;11.40;58.90
27368;DHT22;14839;48.106;11.618;2022-12-29T11:00:14;11.60;58.40
27368;DHT22;14839;48.106;11.618;2022-12-29T11:05:49;11.80;57.90
27368;DHT22;14839;48.106;11.618;2022-12-29T11:08:24;12.10;58.40
27368;DHT22;14839;48.106;11.618;2022-12-29T11:11:22;12.30;55.80
27368;DHT22;14839;48.106;11.618;2022-12-29T11:13:51;12.50;54.20
27368;DHT22;14839;48.106;11.618;2022-12-29T11:16:33;12.70;54.20
27368;DHT22;14839;48.106;11.618;2022-12-29T11:19:00;13.00;53.50
27368;DHT22;14839;48.106;11.618;2022-12-29T11:21:37;12.90;52.20
27368;DHT22;14839;48.106;11.618;2022-12-29T11:24:29;13.00;51.90
27368;DHT22;14839;48.106;11.618;2022-12-29T11:27:13;13.20;52.70
27368;DHT22;14839;48.106;11.618;2022-12-29T11:29:41;13.40;52.60
27368;DHT22;14839;48.106;11.618;2022-12-29T11:32:20;13.50;52.20
27368;DHT22;14839;48.106;11.618;2022-12-29T11:34:47;13.70;52.40
27368;DHT22;14839;48.106;11.618;2022-12-29T11:37:59;13.80;51.10
27368;DHT22;14839;48.106;11.618;2022-12-29T11:40:06;14.00;50.80
27368;DHT22;14839;48.106;11.618;2022-12-29T11:42:41;14.30;50.40
27368;DHT22;14839;48.106;11.618;2022-12-29T11:45:27;14.40;49.80
27368;DHT22;14839;48.106;11.618;2022-12-29T11:48:06;14.40;49.00
27368;DHT22;14839;48.106;11.618;2022-12-29T11:50:36;14.30;50.20
27368;DHT22;14839;48.106;11.618;2022-12-29T11:53:23;14.30;48.80
27368;DHT22;14839;48.106;11.618;2022-12-29T11:56:49;14.30;48.60
27368;DHT22;14839;48.106;11.618;2022-12-29T11:58:50;14.00;49.00
27368;DHT22;14839;48.106;11.618;2022-12-29T12:04:10;14.20;48.50
27368;DHT22;14839;48.106;11.618;2022-12-29T12:06:45;14.10;49.20
27368;DHT22;14839;48.106;11.618;2022-12-29T12:09:22;14.00;48.50
27368;DHT22;14839;48.106;11.618;2022-12-29T12:11:52;13.90;49.30
27368;DHT22;14839;48.106;11.618;2022-12-29T12:14:40;13.80;49.80
27368;DHT22;14839;48.106;11.618;2022-12-29T12:17:19;13.70;49.80
27368;DHT22;14839;48.106;11.618;2022-12-29T12:19:58;13.60;50.20
27368;DHT22;14839;48.106;11.618;2022-12-29T12:22:41;13.50;50.20
27368;DHT22;14839;48.106;11.618;2022-12-29T12:25:21;13.40;50.80
27368;DHT22;14839;48.106;11.618;2022-12-29T12:27:57;13.20;51.40
27368;DHT22;14839;48.106;11.618;2022-12-29T12:30:26;13.20;52.20
27368;DHT22;14839;48.106;11.618;2022-12-29T12:35:31;13.20;53.50
27368;DHT22;14839;48.106;11.618;2022-12-29T12:41:05;13.30;53.50
27368;DHT22;14839;48.106;11.618;2022-12-29T12:43:46;13.20;53.20
27368;DHT22;14839;48.106;11.618;2022-12-29T12:57:18;13.10;55.00
27368;DHT22;14839;48.106;11.618;2022-12-29T13:00:00;13.10;54.80
27368;DHT22;14839;48.106;11.618;2022-12-29T13:02:52;13.00;55.40
27368;DHT22;14839;48.106;11.618;2022-12-29T13:05:28;12.90;55.70
27368;DHT22;14839;48.106;11.618;2022-12-29T13:08:13;12.80;56.10
27368;DHT22;14839;48.106;11.618;2022-12-29T13:11:04;12.70;56.30
27368;DHT22;14839;48.106;11.618;2022-12-29T13:14:02;12.70;56.70
27368;DHT22;14839;48.106;11.618;2022-12-29T13:16:42;12.70;56.70
27368;DHT22;14839;48.106;11.618;2022-12-29T13:22:04;12.70;56.70
27368;DHT22;14839;48.106;11.618;2022-12-29T13:32:42;12.50;58.90
27368;DHT22;14839;48.106;11.618;2022-12-29T13:35:51;12.40;59.40
27368;DHT22;14839;48.106;11.618;2022-12-29T13:41:06;12.50;58.50
27368;DHT22;14839;48.106;11.618;2022-12-29T13:43:35;12.50;58.40
27368;DHT22;14839;48.106;11.618;2022-12-29T13:46:23;12.50;58.80
27368;DHT22;14839;48.106;11.618;2022-12-29T13:49:02;12.40;58.80
27368;DHT22;14839;48.106;11.618;2022-12-29T13:51:30;12.40;58.90
27368;DHT22;14839;48.106;11.618;2022-12-29T13:54:13;12.40;59.20
27368;DHT22;14839;48.106;11.618;2022-12-29T13:56:49;12.30;60.00
27368;DHT22;14839;48.106;11.618;2022-12-29T14:04:58;12.00;59.80
27368;DHT22;14839;48.106;11.618;2022-12-29T14:07:24;12.00;60.20
27368;DHT22;14839;48.106;11.618;2022-12-29T14:09:52;12.00;60.10
27368;DHT22;14839;48.106;11.618;2022-12-29T14:12:20;11.90;60.40
27368;DHT22;14839;48.106;11.618;2022-12-29T14:14:46;11.80;61.00
27368;DHT22;14839;48.106;11.618;2022-12-29T14:17:16;11.80;60.80
27368;DHT22;14839;48.106;11.618;2022-12-29T14:19:43;11.80;60.80
27368;DHT22;14839;48.106;11.618;2022-12-29T14:22:10;11.70;61.40
27368;DHT22;14839;48.106;11.618;2022-12-29T14:24:41;11.60;61.70
27368;DHT22;14839;48.106;11.618;2022-12-29T14:34:59;11.30;63.40
27368;DHT22;14839;48.106;11.618;2022-12-29T14:37:35;11.20;64.70
27368;DHT22;14839;48.106;11.618;2022-12-29T14:40:22;11.10;64.90
27368;DHT22;14839;48.106;11.618;2022-12-29T14:42:51;11.10;65.00
27368;DHT22;14839;48.106;11.618;2022-12-29T14:47:46;10.90;65.20
27368;DHT22;14839;48.106;11.618;2022-12-29T14:53:01;10.70;66.20
27368;DHT22;14839;48.106;11.618;2022-12-29T14:55:45;10.50;66.50
27368;DHT22;14839;48.106;11.618;2022-12-29T14:58:22;10.30;67.10
27368;DHT22;14839;48.106;11.618;2022-12-29T15:00:51;10.20;67.60
27368;DHT22;14839;48.106;11.618;2022-12-29T15:06:09;10.10;69.10
27368;DHT22;14839;48.106;11.618;2022-12-29T15:09:00;10.10;70.30
27368;DHT22;14839;48.106;11.618;2022-12-29T15:14:59;9.80;70.60
27368;DHT22;14839;48.106;11.618;2022-12-29T15:17:34;9.60;69.40
27368;DHT22;14839;48.106;11.618;2022-12-29T15:20:13;9.60;69.80
27368;DHT22;14839;48.106;11.618;2022-12-29T15:22:48;9.60;70.10
27368;DHT22;14839;48.106;11.618;2022-12-29T15:25:16;9.50;69.40
27368;DHT22;14839;48.106;11.618;2022-12-29T15:27:49;9.40;69.70
27368;DHT22;14839;48.106;11.618;2022-12-29T15:30:15;9.20;69.50
27368;DHT22;14839;48.106;11.618;2022-12-29T15:32:43;9.20;70.10
27368;DHT22;14839;48.106;11.618;2022-12-29T15:37:52;9.10;70.30
27368;DHT22;14839;48.106;11.618;2022-12-29T15:40:27;9.10;70.40
27368;DHT22;14839;48.106;11.618;2022-12-29T15:43:12;9.00;70.30
27368;DHT22;14839;48.106;11.618;2022-12-29T15:45:40;9.00;70.60
27368;DHT22;14839;48.106;11.618;2022-12-29T15:48:13;9.00;71.20
27368;DHT22;14839;48.106;11.618;2022-12-29T15:50:40;8.90;71.00
27368;DHT22;14839;48.106;11.618;2022-12-29T15:53:18;8.80;71.60
27368;DHT22;14839;48.106;11.618;2022-12-29T15:55:43;8.70;71.90
27368;DHT22;14839;48.106;11.618;2022-12-29T15:58:39;8.60;71.90
27368;DHT22;14839;48.106;11.618;2022-12-29T16:01:32;8.60;72.50
27368;DHT22;14839;48.106;11.618;2022-12-29T16:04:00;8.60;72.80
27368;DHT22;14839;48.106;11.618;2022-12-29T16:06:37;8.60;73.30
27368;DHT22;14839;48.106;11.618;2022-12-29T16:09:17;8.50;73.70
27368;DHT22;14839;48.106;11.618;2022-12-29T16:14:18;8.40;74.50
27368;DHT22;14839;48.106;11.618;2022-12-29T16:16:45;8.40;74.60
27368;DHT22;14839;48.106;11.618;2022-12-29T16:19:23;8.30;75.10
27368;DHT22;14839;48.106;11.618;2022-12-29T16:21:50;8.20;76.00
27368;DHT22;14839;48.106;11.618;2022-12-29T16:24:18;8.20;76.00
27368;DHT22;14839;48.106;11.618;2022-12-29T16:26:51;8.20;76.60
27368;DHT22;14839;48.106;11.618;2022-12-29T16:29:20;8.20;77.20
27368;DHT22;14839;48.106;11.618;2022-12-29T16:31:53;8.10;77.30
27368;DHT22;14839;48.106;11.618;2022-12-29T16:34:33;8.00;78.50
27368;DHT22;14839;48.106;11.618;2022-12-29T16:37:28;8.00;78.50
27368;DHT22;14839;48.106;11.618;2022-12-29T16:39:54;8.00;79.30
27368;DHT22;14839;48.106;11.618;2022-12-29T16:42:44;8.00;79.60
27368;DHT22;14839;48.106;11.618;2022-12-29T16:50:31;8.10;79.70
27368;DHT22;14839;48.106;11.618;2022-12-29T16:52:58;8.00;79.70
27368;DHT22;14839;48.106;11.618;2022-12-29T16:55:24;8.00;80.30
27368;DHT22;14839;48.106;11.618;2022-12-29T16:57:52;8.00;80.50
27368;DHT22;14839;48.106;11.618;2022-12-29T17:00:23;7.80;80.90
27368;DHT22;14839;48.106;11.618;2022-12-29T17:02:51;7.80;81.80
27368;DHT22;14839;48.106;11.618;2022-12-29T17:05:18;7.80;82.10
27368;DHT22;14839;48.106;11.618;2022-12-29T17:07:45;7.70;83.20
27368;DHT22;14839;48.106;11.618;2022-12-29T17:10:11;7.70;83.20
27368;DHT22;14839;48.106;11.618;2022-12-29T17:12:39;7.70;83.60
27368;DHT22;14839;48.106;11.618;2022-12-29T17:15:26;7.60;84.10
27368;DHT22;14839;48.106;11.618;2022-12-29T17:17:54;7.70;84.20
27368;DHT22;14839;48.106;11.618;2022-12-29T17:20:23;7.70;84.80
27368;DHT22;14839;48.106;11.618;2022-12-29T17:22:49;7.80;85.00
27368;DHT22;14839;48.106;11.618;2022-12-29T17:25:20;7.80;85.40
27368;DHT22;14839;48.106;11.618;2022-12-29T17:28:04;7.80;85.60
27368;DHT22;14839;48.106;11.618;2022-12-29T17:30:33;7.90;85.90
27368;DHT22;14839;48.106;11.618;2022-12-29T17:33:03;7.90;86.30
27368;DHT22;14839;48.106;11.618;2022-12-29T17:35:30;8.00;86.20
27368;DHT22;14839;48.106;11.618;2022-12-29T17:37:55;7.90;86.30
27368;DHT22;14839;48.106;11.618;2022-12-29T17:40:24;7.90;86.60
27368;DHT22;14839;48.106;11.618;2022-12-29T17:42:56;8.00;86.90
27368;DHT22;14839;48.106;11.618;2022-12-29T17:45:29;8.00;86.90
27368;DHT22;14839;48.106;11.618;2022-12-29T17:47:55;8.10;87.20
27368;DHT22;14839;48.106;11.618;2022-12-29T17:50:25;8.10;87.10
27368;DHT22;14839;48.106;11.618;2022-12-29T17:52:56;8.20;86.60
27368;DHT22;14839;48.106;11.618;2022-12-29T17:55:24;8.30;86.60
27368;DHT22;14839;48.106;11.618;2022-12-29T17:57:50;8.30;86.30
27368;DHT22;14839;48.106;11.618;2022-12-29T18:00:21;8.30;86.20
27368;DHT22;14839;48.106;11.618;2022-12-29T18:02:48;8.30;86.30
27368;DHT22;14839;48.106;11.618;2022-12-29T18:05:20;8.30;86.30
27368;DHT22;14839;48.106;11.618;2022-12-29T18:07:46;8.30;86.00
27368;DHT22;14839;48.106;11.618;2022-12-29T18:10:13;8.30;85.90
27368;DHT22;14839;48.106;11.618;2022-12-29T18:12:45;8.30;85.70
27368;DHT22;14839;48.106;11.618;2022-12-29T18:15:31;8.20;85.90
27368;DHT22;14839;48.106;11.618;2022-12-29T18:18:13;8.10;86.20
27368;DHT22;14839;48.106;11.618;2022-12-29T18:20:40;8.00;86.80
27368;DHT22;14839;48.106;11.618;2022-12-29T18:25:45;7.80;87.10
27368;DHT22;14839;48.106;11.618;2022-12-29T18:28:12;7.60;87.10
27368;DHT22;14839;48.106;11.618;2022-12-29T18:30:37;7.60;87.80
27368;DHT22;14839;48.106;11.618;2022-12-29T18:33:03;7.50;88.10
27368;DHT22;14839;48.106;11.618;2022-12-29T18:35:38;7.60;88.30
27368;DHT22;14839;48.106;11.618;2022-12-29T18:38:04;7.50;87.40
27368;DHT22;14839;48.106;11.618;2022-12-29T18:40:34;7.50;87.80
27368;DHT22;14839;48.106;11.618;2022-12-29T18:43:00;7.40;87.40
27368;DHT22;14839;48.106;11.618;2022-12-29T18:45:26;7.30;86.60
27368;DHT22;14839;48.106;11.618;2022-12-29T18:47:51;7.30;86.50
27368;DHT22;14839;48.106;11.618;2022-12-29T18:50:17;7.30;86.60
27368;DHT22;14839;48.106;11.618;2022-12-29T18:52:44;7.20;86.50
27368;DHT22;14839;48.106;11.618;2022-12-29T18:55:22;7.30;85.90
27368;DHT22;14839;48.106;11.618;2022-12-29T18:57:48;7.30;85.90
27368;DHT22;14839;48.106;11.618;2022-12-29T19:00:15;7.30;85.60
27368;DHT22;14839;48.106;11.618;2022-12-29T19:02:41;7.20;86.20
27368;DHT22;14839;48.106;11.618;2022-12-29T19:05:29;7.20;86.50
27368;DHT22;14839;48.106;11.618;2022-12-29T19:07:55;7.20;86.50
27368;DHT22;14839;48.106;11.618;2022-12-29T19:10:22;7.20;86.60
27368;DHT22;14839;48.106;11.618;2022-12-29T19:12:49;7.20;87.20
27368;DHT22;14839;48.106;11.618;2022-12-29T19:15:32;7.20;86.90
27368;DHT22;14839;48.106;11.618;2022-12-29T19:18:01;7.20;87.20
27368;DHT22;14839;48.106;11.618;2022-12-29T19:20:41;7.20;87.50
27368;DHT22;14839;48.106;11.618;2022-12-29T19:23:10;7.20;87.70
27368;DHT22;14839;48.106;11.618;2022-12-29T19:25:36;7.20;87.10
27368;DHT22;14839;48.106;11.618;2022-12-29T19:28:03;7.20;85.70
27368;DHT22;14839;48.106;11.618;2022-12-29T19:30:29;7.30;85.00
27368;DHT22;14839;48.106;11.618;2022-12-29T19:32:55;7.40;84.40
27368;DHT22;14839;48.106;11.618;2022-12-29T19:35:23;7.50;83.90
27368;DHT22;14839;48.106;11.618;2022-12-29T19:37:50;7.70;82.90
27368;DHT22;14839;48.106;11.618;2022-12-29T19:40:18;7.90;82.10
27368;DHT22;14839;48.106;11.618;2022-12-29T19:42:44;8.00;82.00
27368;DHT22;14839;48.106;11.618;2022-12-29T19:45:10;8.10;81.70
27368;DHT22;14839;48.106;11.618;2022-12-29T19:47:36;8.20;81.40
27368;DHT22;14839;48.106;11.618;2022-12-29T19:50:04;8.20;81.10
27368;DHT22;14839;48.106;11.618;2022-12-29T19:52:31;8.30;80.60
27368;DHT22;14839;48.106;11.618;2022-12-29T19:54:57;8.30;80.90
27368;DHT22;14839;48.106;11.618;2022-12-29T19:57:23;8.30;80.90
27368;DHT22;14839;48.106;11.618;2022-12-29T19:59:49;8.40;81.40
27368;DHT22;14839;48.106;11.618;2022-12-29T20:02:26;8.40;81.40
27368;DHT22;14839;48.106;11.618;2022-12-29T20:04:52;8.40;81.20
27368;DHT22;14839;48.106;11.618;2022-12-29T20:07:19;8.50;82.00
27368;DHT22;14839;48.106;11.618;2022-12-29T20:09:45;8.50;82.70
27368;DHT22;14839;48.106;11.618;2022-12-29T20:12:11;8.50;82.70
27368;DHT22;14839;48.106;11.618;2022-12-29T20:14:38;8.40;83.90
27368;DHT22;14839;48.106;11.618;2022-12-29T20:17:05;8.50;84.40
27368;DHT22;14839;48.106;11.618;2022-12-29T20:19:32;8.50;84.50
27368;DHT22;14839;48.106;11.618;2022-12-29T20:21:58;8.50;84.80
27368;DHT22;14839;48.106;11.618;2022-12-29T20:24:23;8.40;84.80
27368;DHT22;14839;48.106;11.618;2022-12-29T20:26:49;8.40;85.00
27368;DHT22;14839;48.106;11.618;2022-12-29T20:29:15;8.40;85.70
27368;DHT22;14839;48.106;11.618;2022-12-29T20:31:41;8.40;85.90
27368;DHT22;14839;48.106;11.618;2022-12-29T20:34:07;8.40;85.40
27368;DHT22;14839;48.106;11.618;2022-12-29T20:36:35;8.40;85.40
27368;DHT22;14839;48.106;11.618;2022-12-29T20:39:04;8.30;85.60
27368;DHT22;14839;48.106;11.618;2022-12-29T20:41:31;8.30;86.00
27368;DHT22;14839;48.106;11.618;2022-12-29T20:43:57;8.30;85.60
27368;DHT22;14839;48.106;11.618;2022-12-29T20:46:23;8.30;85.30
27368;DHT22;14839;48.106;11.618;2022-12-29T20:48:50;8.20;85.00
27368;DHT22;14839;48.106;11.618;2022-12-29T20:51:16;8.20;85.40
27368;DHT22;14839;48.106;11.618;2022-12-29T20:53:41;8.10;85.10
27368;DHT22;14839;48.106;11.618;2022-12-29T20:56:12;8.10;85.10
27368;DHT22;14839;48.106;11.618;2022-12-29T20:58:38;8.10;85.30
27368;DHT22;14839;48.106;11.618;2022-12-29T21:01:06;8.10;85.00
27368;DHT22;14839;48.106;11.618;2022-12-29T21:03:32;8.10;85.10
27368;DHT22;14839;48.106;11.618;2022-12-29T21:05:58;8.10;85.40
27368;DHT22;14839;48.106;11.618;2022-12-29T21:08:25;8.10;85.60
27368;DHT22;14839;48.106;11.618;2022-12-29T21:10:51;8.10;85.70
27368;DHT22;14839;48.106;11.618;2022-12-29T21:13:17;8.00;86.20
27368;DHT22;14839;48.106;11.618;2022-12-29T21:15:44;8.00;86.30
27368;DHT22;14839;48.106;11.618;2022-12-29T21:18:10;7.90;86.60
27368;DHT22;14839;48.106;11.618;2022-12-29T21:20:36;7.90;86.90
27368;DHT22;14839;48.106;11.618;2022-12-29T21:23:02;7.80;87.70
27368;DHT22;14839;48.106;11.618;2022-12-29T21:25:30;7.70;88.10
27368;DHT22;14839;48.106;11.618;2022-12-29T21:28:03;7.70;88.70
27368;DHT22;14839;48.106;11.618;2022-12-29T21:30:29;7.80;89.00
27368;DHT22;14839;48.106;11.618;2022-12-29T21:32:54;7.80;88.90
27368;DHT22;14839;48.106;11.618;2022-12-29T21:35:20;7.80;88.40
27368;DHT22;14839;48.106;11.618;2022-12-29T21:37:45;7.80;88.60
27368;DHT22;14839;48.106;11.618;2022-12-29T21:40:11;7.70;88.60
27368;DHT22;14839;48.106;11.618;2022-12-29T21:42:36;7.70;88.60
27368;DHT22;14839;48.106;11.618;2022-12-29T21:45:02;7.60;88.30
27368;DHT22;14839;48.106;11.618;2022-12-29T21:47:47;7.60;88.00
27368;DHT22;14839;48.106;11.618;2022-12-29T21:50:31;7.50;88.00
27368;DHT22;14839;48.106;11.618;2022-12-29T21:52:56;7.50;88.30
27368;DHT22;14839;48.106;11.618;2022-12-29T21:55:22;7.60;88.30
27368;DHT22;14839;48.106;11.618;2022-12-29T21:57:47;7.60;88.00
27368;DHT22;14839;48.106;11.618;2022-12-29T22:00:31;7.60;88.30
27368;DHT22;14839;48.106;11.618;2022-12-29T22:03:15;7.60;88.90
27368;DHT22;14839;48.106;11.618;2022-12-29T22:05:59;7.50;89.00
27368;DHT22;14839;48.106;11.618;2022-12-29T22:08:43;7.40;89.80
27368;DHT22;14839;48.106;11.618;2022-12-29T22:11:27;7.40;90.20